Blues — ZGAQ9 — position and weather

sailwx.info

Track history (hours):
 
Tides and Currents Weather Stations Pressure Air Temp Water Temp Dewpoint Dewpoint Depression Visibility Wind Speed Wind Dir Waves Ship Positions

Blues

Last reported at 2016-May-26 08:31 UTC. Time now 2016-May-26 08:46 UTC.
Position N 40°35' E 014°16'.

Type: Sailing vessel. MMSI: 319031700.

Date/timePositionNaut miles runAvg speedWind from/ knotsBaromVisibWave heightAir tempDewpointWater temp
2016-May-26 08:31N 40°35' E 014°16'1 1.5
2016-May-26 07:32N 40°33' E 014°15'0 0.0
2016-May-26 06:32N 40°33' E 014°15'0 0.0
2016-May-26 05:32N 40°33' E 014°15'0 0.0
2016-May-26 04:31N 40°33' E 014°15'0 0.0
2016-May-26 03:25N 40°33' E 014°15'0 0.0
2016-May-26 02:31N 40°33' E 014°15'0 0.0
2016-May-26 01:31N 40°33' E 014°15'0 0.0
2016-May-26 00:31N 40°33' E 014°15'0 0.0
2016-May-25 23:31N 40°33' E 014°15'0 0.0
2016-May-25 22:25N 40°33' E 014°15'0 0.0
2016-May-25 21:31N 40°33' E 014°15'0 0.0
2016-May-25 20:31N 40°33' E 014°15'0 0.0
2016-May-25 19:31N 40°33' E 014°15'0 0.0
2016-May-25 18:31N 40°33' E 014°15'0 0.0
2016-May-25 17:31N 40°33' E 014°15'0 0.0
2016-May-25 16:31N 40°33' E 014°15'0 0.0
2016-May-25 15:13N 40°33' E 014°15'0 0.2
2016-May-25 14:33N 40°33' E 014°15'0 0.2
2016-May-25 13:34N 40°34' E 014°15'3 2.8
2016-May-25 12:33N 40°34' E 014°19'4 2.1
2016-May-25 10:32N 40°36' E 014°14'1 1.4
2016-May-25 09:28N 40°36' E 014°16'3 2.7
2016-May-25 08:30N 40°33' E 014°15'0 0.0
2016-May-25 07:30N 40°33' E 014°15'0 0.0
2016-May-24 22:28N 40°33' E 014°15'0 0.0
2016-May-24 21:28N 40°33' E 014°15'0 0.0
2016-May-24 20:28N 40°33' E 014°15'0 0.0
2016-May-24 19:28N 40°33' E 014°15'0 0.0
2016-May-24 18:28N 40°33' E 014°15'0 0.0
2016-May-24 17:28N 40°33' E 014°15'0 0.0
2016-May-24 16:28N 40°33' E 014°15'0 0.0
2016-May-24 15:32N 40°33' E 014°15'0 0.0
2016-May-24 14:26N 40°33' E 014°15'0 0.0
2016-May-24 13:32N 40°33' E 014°15'0 0.0
2016-May-24 11:08N 40°33' E 014°15'0 0.0
2016-May-24 10:32N 40°33' E 014°15'0 0.0
2016-May-24 09:28N 40°33' E 014°15'0 0.0
2016-May-24 08:28N 40°33' E 014°15'0 0.0
2016-May-24 07:32N 40°33' E 014°15'0 0.0
2016-May-24 06:32N 40°33' E 014°15'0 0.0
2016-May-24 05:32N 40°33' E 014°15'0 0.0
2016-May-24 04:20N 40°33' E 014°15'0 0.0
2016-May-24 03:32N 40°33' E 014°15'0 0.0
2016-May-24 02:32N 40°33' E 014°15'0 0.0
2016-May-24 01:32N 40°33' E 014°15'0 0.0
2016-May-24 00:32N 40°33' E 014°15'0 0.0
2016-May-23 23:20N 40°33' E 014°15'0 0.0
2016-May-23 22:32N 40°33' E 014°15'0 0.0
2016-May-23 21:32N 40°33' E 014°15'0 0.0
2016-May-23 20:32N 40°33' E 014°15'0 0.0
2016-May-23 19:32N 40°33' E 014°15'0 0.0
2016-May-23 18:20N 40°33' E 014°15'0 0.0
2016-May-23 17:32N 40°33' E 014°15'0 0.0
2016-May-23 16:32N 40°33' E 014°15'0 0.0
2016-May-23 15:32N 40°33' E 014°15'0 0.0
2016-May-23 14:26N 40°33' E 014°15'0 0.0
2016-May-23 13:20N 40°33' E 014°15'0 0.0
2016-May-23 12:32N 40°33' E 014°15'0 0.0
2016-May-23 11:32N 40°33' E 014°15'0 0.0
2016-May-23 10:32N 40°33' E 014°15'0 0.0
2016-May-23 09:32N 40°33' E 014°15'0 0.4
2016-May-23 08:28N 40°34' E 014°14'0 0.0
2016-May-23 07:33N 40°34' E 014°14'0 0.0
2016-May-23 06:32N 40°34' E 014°14'0 0.0
2016-May-23 05:31N 40°34' E 014°14'0 0.0
2016-May-23 04:27N 40°34' E 014°14'0 0.0
2016-May-23 03:30N 40°34' E 014°14'0 0.0
2016-May-23 02:30N 40°34' E 014°14'0 0.0
2016-May-23 01:30N 40°34' E 014°14'0 0.0
2016-May-23 00:30N 40°34' E 014°14'0 0.0
2016-May-22 23:30N 40°34' E 014°14'0 0.0
2016-May-22 22:32N 40°34' E 014°14'0 0.0
2016-May-22 21:32N 40°34' E 014°14'0 0.0
2016-May-22 20:32N 40°34' E 014°14'0 0.0
2016-May-22 19:29N 40°34' E 014°14'0 0.0
2016-May-22 18:30N 40°34' E 014°14'0 0.0
2016-May-22 17:33N 40°34' E 014°14'0 0.3
2016-May-22 16:33N 40°34' E 014°14'1 0.7
2016-May-22 14:26N 40°33' E 014°15'0 0.0
2016-May-22 13:33N 40°33' E 014°15'0 0.0
2016-May-22 12:31N 40°33' E 014°15'0 0.0
2016-May-22 11:30N 40°33' E 014°15'0 0.0
2016-May-22 10:33N 40°33' E 014°15'0 0.0
2016-May-22 09:31N 40°33' E 014°15'0 0.0
2016-May-22 08:33N 40°33' E 014°15'0 0.0
2016-May-22 06:06N 40°33' E 014°15'3 0.1
2016-May-21 00:33N 40°30' E 014°13'24710.2
2016-May-20 00:15N 38°59' E 009°14'15 8.7
2016-May-19 22:32N 38°53' E 008°57'27710.1
2016-May-18 19:11N 39°15' E 003°01'810.3
2016-May-18 18:26N 39°18' E 002°52'910.1
2016-May-18 17:33N 39°23' E 002°42'  
Track history (hours):
 
Tides and Currents Weather Stations Pressure Air Temp Water Temp Dewpoint Dewpoint Depression Visibility Wind Speed Wind Dir Waves Ship Positions

Blues

Last reported at 2016-May-26 08:31 UTC. Time now 2016-May-26 08:46 UTC.
Position N 40°35' E 014°16'.

Type: Sailing vessel. MMSI: 319031700.

Date/timePositionNaut miles runAvg speedWind from/ knotsBaromVisibWave heightAir tempDewpointWater temp
2016-May-26 08:31N 40°35' E 014°16'1 1.5
2016-May-26 07:32N 40°33' E 014°15'0 0.0
2016-May-26 06:32N 40°33' E 014°15'0 0.0
2016-May-26 05:32N 40°33' E 014°15'0 0.0
2016-May-26 04:31N 40°33' E 014°15'0 0.0
2016-May-26 03:25N 40°33' E 014°15'0 0.0
2016-May-26 02:31N 40°33' E 014°15'0 0.0
2016-May-26 01:31N 40°33' E 014°15'0 0.0
2016-May-26 00:31N 40°33' E 014°15'0 0.0
2016-May-25 23:31N 40°33' E 014°15'0 0.0
2016-May-25 22:25N 40°33' E 014°15'0 0.0
2016-May-25 21:31N 40°33' E 014°15'0 0.0
2016-May-25 20:31N 40°33' E 014°15'0 0.0
2016-May-25 19:31N 40°33' E 014°15'0 0.0
2016-May-25 18:31N 40°33' E 014°15'0 0.0
2016-May-25 17:31N 40°33' E 014°15'0 0.0
2016-May-25 16:31N 40°33' E 014°15'0 0.0
2016-May-25 15:13N 40°33' E 014°15'0 0.2
2016-May-25 14:33N 40°33' E 014°15'0 0.2
2016-May-25 13:34N 40°34' E 014°15'3 2.8
2016-May-25 12:33N 40°34' E 014°19'4 2.1
2016-May-25 10:32N 40°36' E 014°14'1 1.4
2016-May-25 09:28N 40°36' E 014°16'3 2.7
2016-May-25 08:30N 40°33' E 014°15'0 0.0
2016-May-25 07:30N 40°33' E 014°15'0 0.0
2016-May-24 22:28N 40°33' E 014°15'0 0.0
2016-May-24 21:28N 40°33' E 014°15'0 0.0
2016-May-24 20:28N 40°33' E 014°15'0 0.0
2016-May-24 19:28N 40°33' E 014°15'0 0.0
2016-May-24 18:28N 40°33' E 014°15'0 0.0
2016-May-24 17:28N 40°33' E 014°15'0 0.0
2016-May-24 16:28N 40°33' E 014°15'0 0.0
2016-May-24 15:32N 40°33' E 014°15'0 0.0
2016-May-24 14:26N 40°33' E 014°15'0 0.0
2016-May-24 13:32N 40°33' E 014°15'0 0.0
2016-May-24 11:08N 40°33' E 014°15'0 0.0
2016-May-24 10:32N 40°33' E 014°15'0 0.0
2016-May-24 09:28N 40°33' E 014°15'0 0.0
2016-May-24 08:28N 40°33' E 014°15'0 0.0
2016-May-24 07:32N 40°33' E 014°15'0 0.0
2016-May-24 06:32N 40°33' E 014°15'0 0.0
2016-May-24 05:32N 40°33' E 014°15'0 0.0
2016-May-24 04:20N 40°33' E 014°15'0 0.0
2016-May-24 03:32N 40°33' E 014°15'0 0.0
2016-May-24 02:32N 40°33' E 014°15'0 0.0
2016-May-24 01:32N 40°33' E 014°15'0 0.0
2016-May-24 00:32N 40°33' E 014°15'0 0.0
2016-May-23 23:20N 40°33' E 014°15'0 0.0
2016-May-23 22:32N 40°33' E 014°15'0 0.0
2016-May-23 21:32N 40°33' E 014°15'0 0.0
2016-May-23 20:32N 40°33' E 014°15'0 0.0
2016-May-23 19:32N 40°33' E 014°15'0 0.0
2016-May-23 18:20N 40°33' E 014°15'0 0.0
2016-May-23 17:32N 40°33' E 014°15'0 0.0
2016-May-23 16:32N 40°33' E 014°15'0 0.0
2016-May-23 15:32N 40°33' E 014°15'0 0.0
2016-May-23 14:26N 40°33' E 014°15'0 0.0
2016-May-23 13:20N 40°33' E 014°15'0 0.0
2016-May-23 12:32N 40°33' E 014°15'0 0.0
2016-May-23 11:32N 40°33' E 014°15'0 0.0
2016-May-23 10:32N 40°33' E 014°15'0 0.0
2016-May-23 09:32N 40°33' E 014°15'0 0.4
2016-May-23 08:28N 40°34' E 014°14'0 0.0
2016-May-23 07:33N 40°34' E 014°14'0 0.0
2016-May-23 06:32N 40°34' E 014°14'0 0.0
2016-May-23 05:31N 40°34' E 014°14'0 0.0
2016-May-23 04:27N 40°34' E 014°14'0 0.0
2016-May-23 03:30N 40°34' E 014°14'0 0.0
2016-May-23 02:30N 40°34' E 014°14'0 0.0
2016-May-23 01:30N 40°34' E 014°14'0 0.0
2016-May-23 00:30N 40°34' E 014°14'0 0.0
2016-May-22 23:30N 40°34' E 014°14'0 0.0
2016-May-22 22:32N 40°34' E 014°14'0 0.0
2016-May-22 21:32N 40°34' E 014°14'0 0.0
2016-May-22 20:32N 40°34' E 014°14'0 0.0
2016-May-22 19:29N 40°34' E 014°14'0 0.0
2016-May-22 18:30N 40°34' E 014°14'0 0.0
2016-May-22 17:33N 40°34' E 014°14'0 0.3
2016-May-22 16:33N 40°34' E 014°14'1 0.7
2016-May-22 14:26N 40°33' E 014°15'0 0.0
2016-May-22 13:33N 40°33' E 014°15'0 0.0
2016-May-22 12:31N 40°33' E 014°15'0 0.0
2016-May-22 11:30N 40°33' E 014°15'0 0.0
2016-May-22 10:33N 40°33' E 014°15'0 0.0
2016-May-22 09:31N 40°33' E 014°15'0 0.0
2016-May-22 08:33N 40°33' E 014°15'0 0.0
2016-May-22 06:06N 40°33' E 014°15'3 0.1
2016-May-21 00:33N 40°30' E 014°13'24710.2
2016-May-20 00:15N 38°59' E 009°14'15 8.7
2016-May-19 22:32N 38°53' E 008°57'27710.1
2016-May-18 19:11N 39°15' E 003°01'810.3
2016-May-18 18:26N 39°18' E 002°52'910.1
2016-May-18 17:33N 39°23' E 002°42'  

Dump ship's entire track history